Airfield :
LOGIN :

Register | Disclaimer

   EN    FR    IT 

 










Legend :    VFR   Marginal VFR   IFR   Intensive IFR   Very Intensive IFR
Visi :
Ceiling :
>= 8 km
>= 3000ft
5 to 8 km
1000 to 3000 ft
1500m to 5 km
500 to 1000 ft
800 to 1500m
200 to 500 ft
< 800m
< 200 ft
Symbols :   Thunderstorms  Fog  Heavy snow  Heavy precipitations  Wind > 20 kt
SIGMETs :     Misc.  Thunderstorms  Icing  Turbulence  Mountain Waves  Volcanic Ashes






- Airport Elevation : 272 ft
- IATA code : MXN


LFRU - Morlaix-Ploujean

CURRENT METAR :
  • 201330Z AUTO 20012KT 160V240 9999 BKN030 BKN037 18/12 Q1000

EXPIRED METARs :
  • 201300Z AUTO 19012G24KT 150V240 9999 BKN028 BKN036 19/12 Q1000
  • 201230Z AUTO 20010KT 160V240 9999 SCT027 BKN036 BKN044 19/13 Q1000
  • 201200Z AUTO 21010KT 180V250 9999 BKN025 BKN030 BKN036 19/13 Q1000
  • 201130Z AUTO 20010KT 150V240 9999 BKN025 BKN032 18/13 Q1001
  • 201100Z AUTO 20010KT 160V240 9999 SCT024 18/12 Q1001

TAF N/A



MET'MAP, your aeronautical weather chart ! - Copyright ORBIFLY December 2007 - Disclaimer

ORBIFLY MET'MAP TEAM :

Programming & Development : Alexandra Zaïnal
Concept & original design : Baudouin d'Aumeries
Assistance for programming : Marc-Olivier Méhu
Technical & hardware support : Manuel Goepfert

Contact : metmap@orbifly.com




SOURCES & CREDITS :

   NOAA